sensor_id;sensor_type;location;lat;lon;timestamp;temperature;humidity
23827;DHT22;12094;50.822;4.376;2023-02-01T00:02:09;7.80;99.90
23827;DHT22;12094;50.822;4.376;2023-02-01T00:04:37;7.80;99.90
23827;DHT22;12094;50.822;4.376;2023-02-01T00:07:07;7.80;99.90
23827;DHT22;12094;50.822;4.376;2023-02-01T00:09:36;7.90;99.90
23827;DHT22;12094;50.822;4.376;2023-02-01T00:12:23;8.00;99.90
23827;DHT22;12094;50.822;4.376;2023-02-01T00:21:28;7.90;99.90
23827;DHT22;12094;50.822;4.376;2023-02-01T00:23:59;7.90;99.90
23827;DHT22;12094;50.822;4.376;2023-02-01T00:26:32;7.80;99.90
23827;DHT22;12094;50.822;4.376;2023-02-01T00:29:17;7.90;99.90
23827;DHT22;12094;50.822;4.376;2023-02-01T00:31:50;7.80;99.90
23827;DHT22;12094;50.822;4.376;2023-02-01T00:34:20;7.90;99.90
23827;DHT22;12094;50.822;4.376;2023-02-01T00:36:50;7.80;99.90
23827;DHT22;12094;50.822;4.376;2023-02-01T00:39:18;7.90;99.90
23827;DHT22;12094;50.822;4.376;2023-02-01T00:41:46;8.00;99.90
23827;DHT22;12094;50.822;4.376;2023-02-01T00:44:15;7.80;99.90
23827;DHT22;12094;50.822;4.376;2023-02-01T00:46:45;7.80;99.90
23827;DHT22;12094;50.822;4.376;2023-02-01T00:49:13;7.90;99.90
23827;DHT22;12094;50.822;4.376;2023-02-01T00:51:40;7.90;99.90
23827;DHT22;12094;50.822;4.376;2023-02-01T00:54:11;7.90;99.90
23827;DHT22;12094;50.822;4.376;2023-02-01T00:56:43;7.80;99.90
23827;DHT22;12094;50.822;4.376;2023-02-01T00:59:13;7.90;99.90
23827;DHT22;12094;50.822;4.376;2023-02-01T01:01:43;7.90;99.90
23827;DHT22;12094;50.822;4.376;2023-02-01T01:04:14;8.00;99.90
23827;DHT22;12094;50.822;4.376;2023-02-01T01:06:45;7.80;99.90
23827;DHT22;12094;50.822;4.376;2023-02-01T01:09:14;7.80;99.90
23827;DHT22;12094;50.822;4.376;2023-02-01T01:11:44;7.80;99.90
23827;DHT22;12094;50.822;4.376;2023-02-01T01:14:14;7.90;99.90
23827;DHT22;12094;50.822;4.376;2023-02-01T01:16:44;7.80;99.90
23827;DHT22;12094;50.822;4.376;2023-02-01T01:19:17;7.90;99.90
23827;DHT22;12094;50.822;4.376;2023-02-01T01:21:44;7.70;99.90
23827;DHT22;12094;50.822;4.376;2023-02-01T01:24:11;7.80;99.90
23827;DHT22;12094;50.822;4.376;2023-02-01T01:26:40;7.80;99.90
23827;DHT22;12094;50.822;4.376;2023-02-01T01:29:09;7.90;99.90
23827;DHT22;12094;50.822;4.376;2023-02-01T01:31:40;8.00;99.90
23827;DHT22;12094;50.822;4.376;2023-02-01T01:34:08;8.00;99.90
23827;DHT22;12094;50.822;4.376;2023-02-01T01:36:36;8.10;99.90
23827;DHT22;12094;50.822;4.376;2023-02-01T01:39:03;7.90;99.90
23827;DHT22;12094;50.822;4.376;2023-02-01T01:41:35;8.00;99.90
23827;DHT22;12094;50.822;4.376;2023-02-01T01:47:58;8.30;99.90
23827;DHT22;12094;50.822;4.376;2023-02-01T01:50:44;8.30;99.90
23827;DHT22;12094;50.822;4.376;2023-02-01T01:53:27;8.10;99.90
23827;DHT22;12094;50.822;4.376;2023-02-01T01:55:58;8.00;99.90
23827;DHT22;12094;50.822;4.376;2023-02-01T01:58:30;8.10;99.90
23827;DHT22;12094;50.822;4.376;2023-02-01T02:00:59;8.10;99.90
23827;DHT22;12094;50.822;4.376;2023-02-01T02:03:44;8.10;99.90
23827;DHT22;12094;50.822;4.376;2023-02-01T02:08:49;8.00;99.90
23827;DHT22;12094;50.822;4.376;2023-02-01T02:11:17;8.00;99.90
23827;DHT22;12094;50.822;4.376;2023-02-01T02:13:52;8.00;99.90
23827;DHT22;12094;50.822;4.376;2023-02-01T02:16:46;8.10;99.90
23827;DHT22;12094;50.822;4.376;2023-02-01T02:19:48;8.10;99.90
23827;DHT22;12094;50.822;4.376;2023-02-01T02:30:40;8.10;99.90
23827;DHT22;12094;50.822;4.376;2023-02-01T02:36:01;7.90;99.90
23827;DHT22;12094;50.822;4.376;2023-02-01T02:38:56;7.90;99.90
23827;DHT22;12094;50.822;4.376;2023-02-01T02:41:32;7.80;99.90
23827;DHT22;12094;50.822;4.376;2023-02-01T02:44:46;7.80;99.90
23827;DHT22;12094;50.822;4.376;2023-02-01T02:47:44;7.90;99.90
23827;DHT22;12094;50.822;4.376;2023-02-01T02:53:57;8.00;99.90
23827;DHT22;12094;50.822;4.376;2023-02-01T02:56:49;8.00;99.90
23827;DHT22;12094;50.822;4.376;2023-02-01T02:59:45;7.70;99.90
23827;DHT22;12094;50.822;4.376;2023-02-01T03:02:34;7.80;99.90
23827;DHT22;12094;50.822;4.376;2023-02-01T03:05:34;7.80;99.90
23827;DHT22;12094;50.822;4.376;2023-02-01T03:08:18;7.90;99.90
23827;DHT22;12094;50.822;4.376;2023-02-01T03:11:09;7.90;99.90
23827;DHT22;12094;50.822;4.376;2023-02-01T03:13:43;7.70;99.90
23827;DHT22;12094;50.822;4.376;2023-02-01T03:16:22;7.70;99.90
23827;DHT22;12094;50.822;4.376;2023-02-01T03:19:00;7.50;99.90
23827;DHT22;12094;50.822;4.376;2023-02-01T03:21:52;7.70;99.90
23827;DHT22;12094;50.822;4.376;2023-02-01T03:28:08;7.50;99.90
23827;DHT22;12094;50.822;4.376;2023-02-01T03:30:44;7.40;99.90
23827;DHT22;12094;50.822;4.376;2023-02-01T03:33:20;7.40;99.90
23827;DHT22;12094;50.822;4.376;2023-02-01T03:36:28;7.30;99.90
23827;DHT22;12094;50.822;4.376;2023-02-01T03:39:24;7.40;99.90
23827;DHT22;12094;50.822;4.376;2023-02-01T03:42:04;7.30;99.90
23827;DHT22;12094;50.822;4.376;2023-02-01T03:44:41;7.30;99.90
23827;DHT22;12094;50.822;4.376;2023-02-01T03:47:21;7.30;99.90
23827;DHT22;12094;50.822;4.376;2023-02-01T03:49:55;7.40;99.90
23827;DHT22;12094;50.822;4.376;2023-02-01T03:52:37;7.30;99.90
23827;DHT22;12094;50.822;4.376;2023-02-01T03:55:06;7.30;99.90
23827;DHT22;12094;50.822;4.376;2023-02-01T03:57:44;7.20;99.90
23827;DHT22;12094;50.822;4.376;2023-02-01T04:00:22;7.20;99.90
23827;DHT22;12094;50.822;4.376;2023-02-01T04:02:52;7.20;99.90
23827;DHT22;12094;50.822;4.376;2023-02-01T04:05:20;7.30;99.90
23827;DHT22;12094;50.822;4.376;2023-02-01T04:08:01;7.30;99.90
23827;DHT22;12094;50.822;4.376;2023-02-01T04:10:27;7.40;99.90
23827;DHT22;12094;50.822;4.376;2023-02-01T04:12:56;7.30;99.90
23827;DHT22;12094;50.822;4.376;2023-02-01T04:15:23;7.20;99.90
23827;DHT22;12094;50.822;4.376;2023-02-01T04:17:50;7.10;99.90
23827;DHT22;12094;50.822;4.376;2023-02-01T04:20:18;7.10;99.90
23827;DHT22;12094;50.822;4.376;2023-02-01T04:22:47;7.10;99.90
23827;DHT22;12094;50.822;4.376;2023-02-01T04:25:14;6.90;99.90
23827;DHT22;12094;50.822;4.376;2023-02-01T04:27:47;6.70;99.90
23827;DHT22;12094;50.822;4.376;2023-02-01T04:30:15;6.60;99.90
23827;DHT22;12094;50.822;4.376;2023-02-01T04:32:42;6.60;99.90
23827;DHT22;12094;50.822;4.376;2023-02-01T04:35:10;6.60;99.90
23827;DHT22;12094;50.822;4.376;2023-02-01T04:37:54;6.60;99.90
23827;DHT22;12094;50.822;4.376;2023-02-01T04:40:23;6.60;99.90
23827;DHT22;12094;50.822;4.376;2023-02-01T04:42:52;6.50;99.90
23827;DHT22;12094;50.822;4.376;2023-02-01T04:45:20;6.40;99.90
23827;DHT22;12094;50.822;4.376;2023-02-01T04:47:50;6.30;99.90
23827;DHT22;12094;50.822;4.376;2023-02-01T04:50:18;6.30;99.90
23827;DHT22;12094;50.822;4.376;2023-02-01T04:52:48;6.20;99.90
23827;DHT22;12094;50.822;4.376;2023-02-01T04:55:18;6.10;99.90
23827;DHT22;12094;50.822;4.376;2023-02-01T04:57:47;6.10;99.90
23827;DHT22;12094;50.822;4.376;2023-02-01T05:00:17;6.10;99.90
23827;DHT22;12094;50.822;4.376;2023-02-01T05:02:44;6.00;99.90
23827;DHT22;12094;50.822;4.376;2023-02-01T05:05:14;6.00;99.90
23827;DHT22;12094;50.822;4.376;2023-02-01T05:07:42;6.00;99.90
23827;DHT22;12094;50.822;4.376;2023-02-01T05:10:11;6.00;99.90
23827;DHT22;12094;50.822;4.376;2023-02-01T05:12:39;6.00;99.90
23827;DHT22;12094;50.822;4.376;2023-02-01T05:15:24;5.90;99.90
23827;DHT22;12094;50.822;4.376;2023-02-01T05:17:53;5.80;99.90
23827;DHT22;12094;50.822;4.376;2023-02-01T05:20:21;5.80;99.90
23827;DHT22;12094;50.822;4.376;2023-02-01T05:22:49;5.70;99.90
23827;DHT22;12094;50.822;4.376;2023-02-01T05:25:16;5.70;99.90
23827;DHT22;12094;50.822;4.376;2023-02-01T05:27:44;5.70;99.90
23827;DHT22;12094;50.822;4.376;2023-02-01T05:30:16;5.60;99.90
23827;DHT22;12094;50.822;4.376;2023-02-01T05:32:43;5.60;99.90
23827;DHT22;12094;50.822;4.376;2023-02-01T05:35:10;5.70;99.90
23827;DHT22;12094;50.822;4.376;2023-02-01T05:37:37;5.60;99.90
23827;DHT22;12094;50.822;4.376;2023-02-01T05:40:05;5.60;99.90
23827;DHT22;12094;50.822;4.376;2023-02-01T05:42:36;5.60;99.90
23827;DHT22;12094;50.822;4.376;2023-02-01T05:47:58;5.50;99.90
23827;DHT22;12094;50.822;4.376;2023-02-01T05:50:51;5.50;99.90
23827;DHT22;12094;50.822;4.376;2023-02-01T05:53:25;5.40;99.90
23827;DHT22;12094;50.822;4.376;2023-02-01T05:55:55;5.40;99.90
23827;DHT22;12094;50.822;4.376;2023-02-01T05:58:25;5.50;99.90
23827;DHT22;12094;50.822;4.376;2023-02-01T06:00:53;5.40;99.90
23827;DHT22;12094;50.822;4.376;2023-02-01T06:03:23;5.50;99.90
23827;DHT22;12094;50.822;4.376;2023-02-01T06:05:51;5.50;99.90
23827;DHT22;12094;50.822;4.376;2023-02-01T06:08:18;5.40;99.90
23827;DHT22;12094;50.822;4.376;2023-02-01T06:10:45;5.40;99.90
23827;DHT22;12094;50.822;4.376;2023-02-01T06:13:16;5.40;99.90
23827;DHT22;12094;50.822;4.376;2023-02-01T06:15:50;5.50;99.90
23827;DHT22;12094;50.822;4.376;2023-02-01T06:18:20;5.60;99.90
23827;DHT22;12094;50.822;4.376;2023-02-01T06:20:56;5.60;99.90
23827;DHT22;12094;50.822;4.376;2023-02-01T06:23:24;5.60;99.90
23827;DHT22;12094;50.822;4.376;2023-02-01T06:25:59;5.60;99.90
23827;DHT22;12094;50.822;4.376;2023-02-01T06:28:32;5.50;99.90
23827;DHT22;12094;50.822;4.376;2023-02-01T06:31:05;5.60;99.90
23827;DHT22;12094;50.822;4.376;2023-02-01T06:33:37;5.50;99.90
23827;DHT22;12094;50.822;4.376;2023-02-01T06:36:10;5.40;99.90
23827;DHT22;12094;50.822;4.376;2023-02-01T06:38:39;5.50;99.90
23827;DHT22;12094;50.822;4.376;2023-02-01T06:41:07;5.60;99.90
23827;DHT22;12094;50.822;4.376;2023-02-01T06:43:35;5.60;99.90
23827;DHT22;12094;50.822;4.376;2023-02-01T06:46:08;5.60;99.90
23827;DHT22;12094;50.822;4.376;2023-02-01T06:48:40;5.50;99.90
23827;DHT22;12094;50.822;4.376;2023-02-01T06:51:27;5.40;99.90
23827;DHT22;12094;50.822;4.376;2023-02-01T06:53:58;5.50;99.90
23827;DHT22;12094;50.822;4.376;2023-02-01T06:56:27;5.40;99.90
23827;DHT22;12094;50.822;4.376;2023-02-01T06:58:55;5.30;99.90
23827;DHT22;12094;50.822;4.376;2023-02-01T07:01:22;5.20;99.90
23827;DHT22;12094;50.822;4.376;2023-02-01T07:03:51;5.20;99.90
23827;DHT22;12094;50.822;4.376;2023-02-01T07:06:19;5.10;99.90
23827;DHT22;12094;50.822;4.376;2023-02-01T07:08:46;5.10;99.90
23827;DHT22;12094;50.822;4.376;2023-02-01T07:11:16;5.10;99.90
23827;DHT22;12094;50.822;4.376;2023-02-01T07:13:46;5.20;99.90
23827;DHT22;12094;50.822;4.376;2023-02-01T07:16:19;5.20;99.90
23827;DHT22;12094;50.822;4.376;2023-02-01T07:18:49;5.10;99.90
23827;DHT22;12094;50.822;4.376;2023-02-01T07:21:16;5.10;99.90
23827;DHT22;12094;50.822;4.376;2023-02-01T07:23:47;5.10;99.90
23827;DHT22;12094;50.822;4.376;2023-02-01T07:26:14;5.10;99.90
23827;DHT22;12094;50.822;4.376;2023-02-01T07:28:43;5.20;99.90
23827;DHT22;12094;50.822;4.376;2023-02-01T07:31:13;5.20;99.90
23827;DHT22;12094;50.822;4.376;2023-02-01T07:33:42;5.10;99.90
23827;DHT22;12094;50.822;4.376;2023-02-01T07:36:15;5.20;99.90
23827;DHT22;12094;50.822;4.376;2023-02-01T07:38:44;5.10;99.90
23827;DHT22;12094;50.822;4.376;2023-02-01T07:41:13;5.10;99.90
23827;DHT22;12094;50.822;4.376;2023-02-01T07:43:41;5.00;99.90
23827;DHT22;12094;50.822;4.376;2023-02-01T07:46:11;5.10;99.90
23827;DHT22;12094;50.822;4.376;2023-02-01T07:48:41;5.00;99.90
23827;DHT22;12094;50.822;4.376;2023-02-01T07:51:10;5.10;99.90
23827;DHT22;12094;50.822;4.376;2023-02-01T07:53:47;5.10;99.90
23827;DHT22;12094;50.822;4.376;2023-02-01T07:56:20;5.20;99.90
23827;DHT22;12094;50.822;4.376;2023-02-01T07:58:53;5.20;99.90
23827;DHT22;12094;50.822;4.376;2023-02-01T08:01:24;5.30;99.90
23827;DHT22;12094;50.822;4.376;2023-02-01T08:04:02;5.30;99.90
23827;DHT22;12094;50.822;4.376;2023-02-01T08:06:32;5.40;99.90
23827;DHT22;12094;50.822;4.376;2023-02-01T08:09:02;5.40;99.90
23827;DHT22;12094;50.822;4.376;2023-02-01T08:11:30;5.40;99.90
23827;DHT22;12094;50.822;4.376;2023-02-01T08:13:58;5.50;99.90
23827;DHT22;12094;50.822;4.376;2023-02-01T08:16:26;5.50;99.90
23827;DHT22;12094;50.822;4.376;2023-02-01T08:18:55;5.50;99.90
23827;DHT22;12094;50.822;4.376;2023-02-01T08:21:24;5.50;99.90
23827;DHT22;12094;50.822;4.376;2023-02-01T08:23:53;5.50;99.90
23827;DHT22;12094;50.822;4.376;2023-02-01T08:26:23;5.50;99.90
23827;DHT22;12094;50.822;4.376;2023-02-01T08:28:55;5.50;99.90
23827;DHT22;12094;50.822;4.376;2023-02-01T08:31:27;5.60;99.90
23827;DHT22;12094;50.822;4.376;2023-02-01T08:33:58;5.70;99.90
23827;DHT22;12094;50.822;4.376;2023-02-01T08:36:29;5.70;99.90
23827;DHT22;12094;50.822;4.376;2023-02-01T08:38:57;5.70;99.90
23827;DHT22;12094;50.822;4.376;2023-02-01T08:41:27;5.70;99.90
23827;DHT22;12094;50.822;4.376;2023-02-01T08:43:55;5.60;99.90
23827;DHT22;12094;50.822;4.376;2023-02-01T08:46:23;5.60;99.90
23827;DHT22;12094;50.822;4.376;2023-02-01T08:48:50;5.80;99.90
23827;DHT22;12094;50.822;4.376;2023-02-01T08:51:19;5.80;99.90
23827;DHT22;12094;50.822;4.376;2023-02-01T08:53:48;5.90;99.90
23827;DHT22;12094;50.822;4.376;2023-02-01T08:56:18;5.80;99.90
23827;DHT22;12094;50.822;4.376;2023-02-01T08:58:46;5.80;99.90
23827;DHT22;12094;50.822;4.376;2023-02-01T09:01:15;5.90;99.90
23827;DHT22;12094;50.822;4.376;2023-02-01T09:03:43;5.90;99.90
23827;DHT22;12094;50.822;4.376;2023-02-01T09:06:14;5.90;99.90
23827;DHT22;12094;50.822;4.376;2023-02-01T09:08:42;5.90;99.90
23827;DHT22;12094;50.822;4.376;2023-02-01T09:11:15;5.90;99.90
23827;DHT22;12094;50.822;4.376;2023-02-01T09:13:42;6.00;99.90
23827;DHT22;12094;50.822;4.376;2023-02-01T09:16:09;6.10;99.90
23827;DHT22;12094;50.822;4.376;2023-02-01T09:18:36;6.00;99.90
23827;DHT22;12094;50.822;4.376;2023-02-01T09:21:21;6.10;99.90
23827;DHT22;12094;50.822;4.376;2023-02-01T09:23:50;6.10;99.90
23827;DHT22;12094;50.822;4.376;2023-02-01T09:26:19;6.20;99.90
23827;DHT22;12094;50.822;4.376;2023-02-01T09:28:59;6.40;99.90
23827;DHT22;12094;50.822;4.376;2023-02-01T09:31:26;6.50;99.90
23827;DHT22;12094;50.822;4.376;2023-02-01T09:33:54;6.70;99.90
23827;DHT22;12094;50.822;4.376;2023-02-01T09:36:21;6.70;99.90
23827;DHT22;12094;50.822;4.376;2023-02-01T09:39:15;6.70;99.90
23827;DHT22;12094;50.822;4.376;2023-02-01T09:41:57;6.70;99.90
23827;DHT22;12094;50.822;4.376;2023-02-01T09:47:26;6.70;99.90
23827;DHT22;12094;50.822;4.376;2023-02-01T09:50:14;6.80;99.90
23827;DHT22;12094;50.822;4.376;2023-02-01T09:53:10;6.80;99.90
23827;DHT22;12094;50.822;4.376;2023-02-01T09:55:47;6.80;99.90
23827;DHT22;12094;50.822;4.376;2023-02-01T09:58:27;7.00;99.90
23827;DHT22;12094;50.822;4.376;2023-02-01T10:01:00;7.00;99.90
23827;DHT22;12094;50.822;4.376;2023-02-01T10:03:34;7.20;99.90
23827;DHT22;12094;50.822;4.376;2023-02-01T10:06:27;7.20;99.90
23827;DHT22;12094;50.822;4.376;2023-02-01T10:09:38;7.30;99.90
23827;DHT22;12094;50.822;4.376;2023-02-01T10:18:00;7.50;99.90
23827;DHT22;12094;50.822;4.376;2023-02-01T10:27:36;8.10;99.90
23827;DHT22;12094;50.822;4.376;2023-02-01T10:29:47;8.20;99.90
23827;DHT22;12094;50.822;4.376;2023-02-01T10:32:35;8.40;99.90
23827;DHT22;12094;50.822;4.376;2023-02-01T10:35:13;8.40;99.90
23827;DHT22;12094;50.822;4.376;2023-02-01T10:37:53;8.20;99.90
23827;DHT22;12094;50.822;4.376;2023-02-01T10:40:26;8.40;99.90
23827;DHT22;12094;50.822;4.376;2023-02-01T10:43:02;8.30;99.90
23827;DHT22;12094;50.822;4.376;2023-02-01T10:45:31;8.40;99.90
23827;DHT22;12094;50.822;4.376;2023-02-01T10:48:00;8.40;99.90
23827;DHT22;12094;50.822;4.376;2023-02-01T10:50:37;8.70;99.90
23827;DHT22;12094;50.822;4.376;2023-02-01T10:53:15;9.20;99.90
23827;DHT22;12094;50.822;4.376;2023-02-01T10:55:54;9.60;99.90
23827;DHT22;12094;50.822;4.376;2023-02-01T10:58:30;10.30;99.90
23827;DHT22;12094;50.822;4.376;2023-02-01T11:01:04;10.90;99.90
23827;DHT22;12094;50.822;4.376;2023-02-01T11:03:53;11.50;99.90
23827;DHT22;12094;50.822;4.376;2023-02-01T11:06:32;11.70;99.90
23827;DHT22;12094;50.822;4.376;2023-02-01T11:09:14;11.80;99.90
23827;DHT22;12094;50.822;4.376;2023-02-01T11:17:12;10.90;99.90
23827;DHT22;12094;50.822;4.376;2023-02-01T11:19:47;10.70;99.90
23827;DHT22;12094;50.822;4.376;2023-02-01T11:22:26;10.80;99.90
23827;DHT22;12094;50.822;4.376;2023-02-01T11:24:55;11.00;99.90
23827;DHT22;12094;50.822;4.376;2023-02-01T11:27:25;11.10;99.90
23827;DHT22;12094;50.822;4.376;2023-02-01T11:29:59;11.70;99.90
23827;DHT22;12094;50.822;4.376;2023-02-01T11:32:28;11.90;99.90
23827;DHT22;12094;50.822;4.376;2023-02-01T11:35:17;11.90;99.90
23827;DHT22;12094;50.822;4.376;2023-02-01T11:37:54;11.40;99.90
23827;DHT22;12094;50.822;4.376;2023-02-01T11:40:39;11.10;99.90
23827;DHT22;12094;50.822;4.376;2023-02-01T11:43:25;10.80;99.90
23827;DHT22;12094;50.822;4.376;2023-02-01T11:46:01;10.60;99.90
23827;DHT22;12094;50.822;4.376;2023-02-01T11:48:32;10.70;99.90
23827;DHT22;12094;50.822;4.376;2023-02-01T11:54:30;10.60;99.90
23827;DHT22;12094;50.822;4.376;2023-02-01T12:03:02;10.60;99.90
23827;DHT22;12094;50.822;4.376;2023-02-01T12:09:12;10.70;99.90
23827;DHT22;12094;50.822;4.376;2023-02-01T12:11:42;10.70;99.90
23827;DHT22;12094;50.822;4.376;2023-02-01T12:14:23;10.60;99.90
23827;DHT22;12094;50.822;4.376;2023-02-01T12:22:33;10.70;99.90
23827;DHT22;12094;50.822;4.376;2023-02-01T12:25:13;10.30;99.90
23827;DHT22;12094;50.822;4.376;2023-02-01T12:38:41;12.10;99.90
23827;DHT22;12094;50.822;4.376;2023-02-01T12:44:00;12.80;99.90
23827;DHT22;12094;50.822;4.376;2023-02-01T12:49:14;12.70;99.90
23827;DHT22;12094;50.822;4.376;2023-02-01T12:51:46;12.70;99.90
23827;DHT22;12094;50.822;4.376;2023-02-01T12:54:48;12.60;99.90
23827;DHT22;12094;50.822;4.376;2023-02-01T12:57:23;12.80;99.90
23827;DHT22;12094;50.822;4.376;2023-02-01T13:00:01;12.90;99.90
23827;DHT22;12094;50.822;4.376;2023-02-01T13:02:59;13.10;99.90
23827;DHT22;12094;50.822;4.376;2023-02-01T13:05:44;12.80;99.90
23827;DHT22;12094;50.822;4.376;2023-02-01T13:11:22;11.90;99.90
23827;DHT22;12094;50.822;4.376;2023-02-01T13:14:02;11.70;99.90
23827;DHT22;12094;50.822;4.376;2023-02-01T13:16:47;11.40;99.90
23827;DHT22;12094;50.822;4.376;2023-02-01T13:22:31;11.60;99.90
23827;DHT22;12094;50.822;4.376;2023-02-01T13:25:04;11.70;99.90
23827;DHT22;12094;50.822;4.376;2023-02-01T13:27:34;11.70;99.90
23827;DHT22;12094;50.822;4.376;2023-02-01T13:36:13;11.60;99.90
23827;DHT22;12094;50.822;4.376;2023-02-01T13:41:58;11.30;99.90
23827;DHT22;12094;50.822;4.376;2023-02-01T13:47:38;11.00;99.90
23827;DHT22;12094;50.822;4.376;2023-02-01T13:50:28;11.00;99.90
23827;DHT22;12094;50.822;4.376;2023-02-01T13:53:21;11.10;99.90
23827;DHT22;12094;50.822;4.376;2023-02-01T13:56:02;11.10;99.90
23827;DHT22;12094;50.822;4.376;2023-02-01T13:58:37;10.90;99.90
23827;DHT22;12094;50.822;4.376;2023-02-01T14:03:58;11.00;99.90
23827;DHT22;12094;50.822;4.376;2023-02-01T14:12:47;11.20;99.90
23827;DHT22;12094;50.822;4.376;2023-02-01T14:15:27;11.20;99.90
23827;DHT22;12094;50.822;4.376;2023-02-01T14:17:57;11.20;99.90
23827;DHT22;12094;50.822;4.376;2023-02-01T14:20:46;11.00;99.90
23827;DHT22;12094;50.822;4.376;2023-02-01T14:23:19;10.90;99.90
23827;DHT22;12094;50.822;4.376;2023-02-01T14:26:04;10.70;99.90
23827;DHT22;12094;50.822;4.376;2023-02-01T14:28:36;10.80;99.90
23827;DHT22;12094;50.822;4.376;2023-02-01T14:31:22;10.80;99.90
23827;DHT22;12094;50.822;4.376;2023-02-01T14:34:03;10.80;99.90
23827;DHT22;12094;50.822;4.376;2023-02-01T14:36:44;10.70;99.90
23827;DHT22;12094;50.822;4.376;2023-02-01T14:39:50;10.70;99.90
23827;DHT22;12094;50.822;4.376;2023-02-01T14:53:32;10.90;99.90
23827;DHT22;12094;50.822;4.376;2023-02-01T14:56:11;10.70;99.90
23827;DHT22;12094;50.822;4.376;2023-02-01T14:58:56;10.60;99.90
23827;DHT22;12094;50.822;4.376;2023-02-01T15:01:35;10.70;99.90
23827;DHT22;12094;50.822;4.376;2023-02-01T15:04:17;10.70;99.90
23827;DHT22;12094;50.822;4.376;2023-02-01T15:06:56;10.60;99.90
23827;DHT22;12094;50.822;4.376;2023-02-01T15:09:33;10.50;99.90
23827;DHT22;12094;50.822;4.376;2023-02-01T15:17:37;10.50;99.90
23827;DHT22;12094;50.822;4.376;2023-02-01T15:20:25;10.60;99.90
23827;DHT22;12094;50.822;4.376;2023-02-01T15:23:28;10.60;99.90
23827;DHT22;12094;50.822;4.376;2023-02-01T15:25:59;10.50;99.90
23827;DHT22;12094;50.822;4.376;2023-02-01T15:28:27;10.40;99.90
23827;DHT22;12094;50.822;4.376;2023-02-01T15:30:59;10.30;99.90
23827;DHT22;12094;50.822;4.376;2023-02-01T15:33:28;10.20;99.90
23827;DHT22;12094;50.822;4.376;2023-02-01T15:36:11;10.20;99.90
23827;DHT22;12094;50.822;4.376;2023-02-01T15:38:43;10.10;99.90
23827;DHT22;12094;50.822;4.376;2023-02-01T15:41:21;10.10;99.90
23827;DHT22;12094;50.822;4.376;2023-02-01T15:46:35;10.30;99.90
23827;DHT22;12094;50.822;4.376;2023-02-01T15:49:27;10.20;99.90
23827;DHT22;12094;50.822;4.376;2023-02-01T15:52:34;10.10;99.90
23827;DHT22;12094;50.822;4.376;2023-02-01T15:58:20;10.10;99.90
23827;DHT22;12094;50.822;4.376;2023-02-01T16:00:55;10.20;99.90
23827;DHT22;12094;50.822;4.376;2023-02-01T16:03:47;10.20;99.90
23827;DHT22;12094;50.822;4.376;2023-02-01T16:09:14;10.10;99.90
23827;DHT22;12094;50.822;4.376;2023-02-01T16:12:01;10.10;99.90
23827;DHT22;12094;50.822;4.376;2023-02-01T16:14:46;10.20;99.90
23827;DHT22;12094;50.822;4.376;2023-02-01T16:17:14;10.20;99.90
23827;DHT22;12094;50.822;4.376;2023-02-01T16:19:49;10.10;99.90
23827;DHT22;12094;50.822;4.376;2023-02-01T16:22:21;10.10;99.90
23827;DHT22;12094;50.822;4.376;2023-02-01T16:24:51;10.00;99.90
23827;DHT22;12094;50.822;4.376;2023-02-01T16:27:23;10.00;99.90
23827;DHT22;12094;50.822;4.376;2023-02-01T16:29:51;10.10;99.90
23827;DHT22;12094;50.822;4.376;2023-02-01T16:32:25;10.20;99.90
23827;DHT22;12094;50.822;4.376;2023-02-01T16:34:57;10.10;99.90
23827;DHT22;12094;50.822;4.376;2023-02-01T16:37:28;10.00;99.90
23827;DHT22;12094;50.822;4.376;2023-02-01T16:40:05;9.90;99.90
23827;DHT22;12094;50.822;4.376;2023-02-01T16:42:32;9.80;99.90
23827;DHT22;12094;50.822;4.376;2023-02-01T16:48:21;9.90;99.90
23827;DHT22;12094;50.822;4.376;2023-02-01T16:50:59;9.80;99.90
23827;DHT22;12094;50.822;4.376;2023-02-01T16:53:31;9.80;99.90
23827;DHT22;12094;50.822;4.376;2023-02-01T16:56:37;9.80;99.90
23827;DHT22;12094;50.822;4.376;2023-02-01T16:59:08;9.80;99.90
23827;DHT22;12094;50.822;4.376;2023-02-01T17:01:38;9.80;99.90
23827;DHT22;12094;50.822;4.376;2023-02-01T17:04:11;9.80;99.90
23827;DHT22;12094;50.822;4.376;2023-02-01T17:06:41;9.90;99.90
23827;DHT22;12094;50.822;4.376;2023-02-01T17:09:10;10.00;99.90
23827;DHT22;12094;50.822;4.376;2023-02-01T17:11:40;9.90;99.90
23827;DHT22;12094;50.822;4.376;2023-02-01T17:14:39;9.80;99.90
23827;DHT22;12094;50.822;4.376;2023-02-01T17:18:00;9.80;99.90
23827;DHT22;12094;50.822;4.376;2023-02-01T17:21:16;9.80;99.90
23827;DHT22;12094;50.822;4.376;2023-02-01T17:24:02;9.80;99.90
23827;DHT22;12094;50.822;4.376;2023-02-01T17:26:47;9.80;99.90
23827;DHT22;12094;50.822;4.376;2023-02-01T17:29:16;9.90;99.90
23827;DHT22;12094;50.822;4.376;2023-02-01T17:31:55;9.90;99.90
23827;DHT22;12094;50.822;4.376;2023-02-01T17:34:29;10.00;99.90
23827;DHT22;12094;50.822;4.376;2023-02-01T17:37:00;10.00;99.90
23827;DHT22;12094;50.822;4.376;2023-02-01T17:39:27;10.00;99.90
23827;DHT22;12094;50.822;4.376;2023-02-01T17:42:16;9.70;99.90
23827;DHT22;12094;50.822;4.376;2023-02-01T17:44:47;9.70;99.90
23827;DHT22;12094;50.822;4.376;2023-02-01T17:47:20;9.80;99.90
23827;DHT22;12094;50.822;4.376;2023-02-01T17:50:05;9.80;99.90
23827;DHT22;12094;50.822;4.376;2023-02-01T17:52:41;9.80;99.90
23827;DHT22;12094;50.822;4.376;2023-02-01T17:55:28;9.80;99.90
23827;DHT22;12094;50.822;4.376;2023-02-01T17:58:06;9.70;99.90
23827;DHT22;12094;50.822;4.376;2023-02-01T18:00:34;9.60;99.90
23827;DHT22;12094;50.822;4.376;2023-02-01T18:03:09;9.60;99.90
23827;DHT22;12094;50.822;4.376;2023-02-01T18:05:44;9.70;99.90
23827;DHT22;12094;50.822;4.376;2023-02-01T18:08:26;9.60;99.90
23827;DHT22;12094;50.822;4.376;2023-02-01T18:11:23;9.70;99.90
23827;DHT22;12094;50.822;4.376;2023-02-01T18:14:37;9.60;99.90
23827;DHT22;12094;50.822;4.376;2023-02-01T18:17:07;9.70;99.90
23827;DHT22;12094;50.822;4.376;2023-02-01T18:19:38;9.70;99.90
23827;DHT22;12094;50.822;4.376;2023-02-01T18:22:20;9.60;99.90
23827;DHT22;12094;50.822;4.376;2023-02-01T18:24:54;9.50;99.90
23827;DHT22;12094;50.822;4.376;2023-02-01T18:27:24;9.40;99.90
23827;DHT22;12094;50.822;4.376;2023-02-01T18:30:01;9.30;99.90
23827;DHT22;12094;50.822;4.376;2023-02-01T18:32:32;9.50;99.90
23827;DHT22;12094;50.822;4.376;2023-02-01T18:35:04;9.50;99.90
23827;DHT22;12094;50.822;4.376;2023-02-01T18:37:36;9.40;99.90
23827;DHT22;12094;50.822;4.376;2023-02-01T18:40:21;9.40;99.90
23827;DHT22;12094;50.822;4.376;2023-02-01T18:42:54;9.40;99.90
23827;DHT22;12094;50.822;4.376;2023-02-01T18:45:35;9.50;99.90
23827;DHT22;12094;50.822;4.376;2023-02-01T18:48:10;9.40;99.90
23827;DHT22;12094;50.822;4.376;2023-02-01T18:50:43;9.30;99.90
23827;DHT22;12094;50.822;4.376;2023-02-01T18:53:20;9.50;99.90
23827;DHT22;12094;50.822;4.376;2023-02-01T18:55:51;9.40;99.90
23827;DHT22;12094;50.822;4.376;2023-02-01T18:58:26;9.40;99.90
23827;DHT22;12094;50.822;4.376;2023-02-01T19:00:57;9.40;99.90